createdAt,value
2023-02-23T00:00:27.772Z,20.70
2023-02-23T00:00:59.654Z,21.30
2023-02-23T00:01:31.501Z,20.13
2023-02-23T00:02:05.795Z,18.60
2023-02-23T00:02:37.591Z,20.43
2023-02-23T00:03:09.559Z,20.93
2023-02-23T00:03:42.007Z,20.90
2023-02-23T00:04:13.880Z,19.97
2023-02-23T00:04:45.819Z,20.03
2023-02-23T00:05:17.814Z,19.93
2023-02-23T00:05:49.626Z,20.03
2023-02-23T00:06:21.511Z,20.77
2023-02-23T00:06:54.129Z,20.53
2023-02-23T00:07:27.199Z,20.07
2023-02-23T00:07:59.397Z,19.80
2023-02-23T00:08:31.164Z,19.47
2023-02-23T00:09:23.450Z,20.10
2023-02-23T00:09:57.055Z,21.20
2023-02-23T00:10:31.707Z,21.37
2023-02-23T00:11:05.701Z,21.53
2023-02-23T00:11:38.848Z,21.30
2023-02-23T00:12:10.684Z,20.77
2023-02-23T00:12:42.626Z,20.07
2023-02-23T00:13:14.382Z,20.30
2023-02-23T00:13:50.288Z,21.00
2023-02-23T00:14:31.256Z,21.43
2023-02-23T00:15:03.323Z,20.80
2023-02-23T00:15:36.500Z,20.50
2023-02-23T00:16:14.985Z,21.83
2023-02-23T00:16:47.047Z,21.03
2023-02-23T00:17:18.931Z,21.47
2023-02-23T00:17:51.890Z,20.63
2023-02-23T00:18:23.636Z,21.97
2023-02-23T00:19:00.632Z,21.67
2023-02-23T00:19:33.711Z,21.40
2023-02-23T00:20:12.978Z,20.67
2023-02-23T00:20:48.548Z,21.00
2023-02-23T00:21:33.187Z,21.10
2023-02-23T00:22:04.988Z,21.80
2023-02-23T00:22:40.338Z,21.43
2023-02-23T00:23:12.135Z,21.10
2023-02-23T00:23:49.392Z,22.10
2023-02-23T00:24:21.549Z,20.43
2023-02-23T00:24:54.026Z,21.10
2023-02-23T00:25:26.003Z,21.97
2023-02-23T00:25:59.560Z,22.23
2023-02-23T00:26:35.287Z,21.57
2023-02-23T00:27:07.204Z,22.43
2023-02-23T00:27:44.417Z,22.40
2023-02-23T00:28:16.543Z,21.60
2023-02-23T00:28:49.470Z,21.60
2023-02-23T00:29:23.882Z,21.13
2023-02-23T00:29:56.528Z,22.07
2023-02-23T00:30:28.390Z,21.80
2023-02-23T00:31:02.976Z,21.23
2023-02-23T00:31:35.573Z,21.60
2023-02-23T00:32:07.544Z,21.77
2023-02-23T00:32:40.004Z,21.83
2023-02-23T00:33:12.535Z,21.87
2023-02-23T00:33:44.826Z,22.37
2023-02-23T00:34:22.042Z,21.80
2023-02-23T00:34:53.868Z,21.23
2023-02-23T00:35:25.600Z,22.40
2023-02-23T00:36:13.970Z,22.80
2023-02-23T00:36:45.705Z,21.90
2023-02-23T00:37:19.129Z,21.43
2023-02-23T00:37:50.980Z,21.73
2023-02-23T00:38:22.758Z,21.73
2023-02-23T00:39:00.671Z,21.93
2023-02-23T00:39:32.509Z,22.87
2023-02-23T00:40:13.157Z,23.67
2023-02-23T00:40:46.030Z,23.77
2023-02-23T00:41:20.599Z,22.60
2023-02-23T00:41:54.023Z,21.73
2023-02-23T00:42:32.370Z,22.20
2023-02-23T00:43:04.230Z,22.10
2023-02-23T00:43:35.865Z,22.17
2023-02-23T00:44:08.106Z,21.73
2023-02-23T00:44:40.780Z,23.20
2023-02-23T00:45:16.161Z,22.87
2023-02-23T00:45:48.289Z,21.27
2023-02-23T00:46:23.922Z,21.53
2023-02-23T00:46:55.660Z,22.53
2023-02-23T00:47:27.456Z,22.13
2023-02-23T00:47:59.253Z,21.90
2023-02-23T00:48:35.585Z,21.57
2023-02-23T00:49:07.869Z,22.73
2023-02-23T00:49:39.645Z,22.77
2023-02-23T00:50:16.952Z,22.17
2023-02-23T00:50:50.813Z,24.10
2023-02-23T00:51:23.970Z,23.93
2023-02-23T00:51:55.730Z,23.00
2023-02-23T00:52:27.474Z,22.73
2023-02-23T00:53:00.317Z,24.00
2023-02-23T00:53:32.661Z,22.80
2023-02-23T00:54:05.122Z,22.03
2023-02-23T00:54:36.935Z,22.60
2023-02-23T00:55:10.481Z,22.63
2023-02-23T00:55:42.311Z,22.07
2023-02-23T00:56:16.072Z,22.20
2023-02-23T00:56:48.117Z,22.47
2023-02-23T00:57:19.877Z,22.00
2023-02-23T00:57:51.664Z,22.70
2023-02-23T00:58:25.281Z,22.33
2023-02-23T00:58:57.449Z,24.23
2023-02-23T00:59:29.834Z,24.13
2023-02-23T01:00:01.961Z,24.23
2023-02-23T01:00:33.934Z,24.13
2023-02-23T01:01:11.958Z,24.30
2023-02-23T01:01:44.162Z,23.40
2023-02-23T01:02:16.050Z,23.47
2023-02-23T01:02:48.951Z,24.07
2023-02-23T01:03:20.834Z,23.27
2023-02-23T01:03:53.420Z,21.80
2023-02-23T01:04:25.296Z,23.27
2023-02-23T01:04:57.315Z,24.17
2023-02-23T01:05:29.147Z,24.40
2023-02-23T01:06:05.529Z,24.83
2023-02-23T01:06:38.887Z,23.93
2023-02-23T01:07:12.999Z,23.73
2023-02-23T01:07:47.616Z,23.37
2023-02-23T01:08:19.502Z,22.90
2023-02-23T01:08:56.813Z,24.13
2023-02-23T01:09:28.802Z,23.90
2023-02-23T01:10:00.627Z,23.97
2023-02-23T01:10:33.471Z,23.67
2023-02-23T01:11:14.642Z,23.83
2023-02-23T01:11:47.137Z,24.27
2023-02-23T01:12:18.881Z,25.50
2023-02-23T01:12:52.125Z,25.07
2023-02-23T01:13:24.990Z,25.10
2023-02-23T01:13:58.716Z,26.20
2023-02-23T01:14:31.470Z,25.17
2023-02-23T01:15:03.665Z,24.93
2023-02-23T01:15:35.515Z,25.00
2023-02-23T01:16:12.897Z,24.63
2023-02-23T01:16:44.726Z,24.80
2023-02-23T01:17:18.428Z,25.10
2023-02-23T01:17:50.368Z,24.90
2023-02-23T01:18:22.538Z,24.70
2023-02-23T01:18:59.800Z,24.40
2023-02-23T01:19:34.185Z,23.83
2023-02-23T01:20:17.936Z,24.13
2023-02-23T01:20:51.038Z,26.13
2023-02-23T01:21:24.758Z,25.27
2023-02-23T01:21:56.510Z,24.53
2023-02-23T01:22:28.318Z,24.83
2023-02-23T01:23:00.158Z,25.67
2023-02-23T01:23:32.629Z,24.03
2023-02-23T01:24:06.116Z,24.47
2023-02-23T01:24:38.764Z,24.90
2023-02-23T01:25:12.402Z,25.80
2023-02-23T01:25:45.333Z,24.20
2023-02-23T01:26:22.531Z,23.80
2023-02-23T01:26:54.343Z,24.47
2023-02-23T01:27:26.104Z,25.00
2023-02-23T01:27:58.256Z,24.63
2023-02-23T01:28:30.026Z,25.57
2023-02-23T01:29:11.761Z,24.37
2023-02-23T01:29:43.659Z,25.80
2023-02-23T01:30:16.152Z,25.30
2023-02-23T01:30:48.329Z,25.63
2023-02-23T01:31:22.334Z,26.60
2023-02-23T01:31:54.585Z,25.30
2023-02-23T01:32:26.385Z,24.03
2023-02-23T01:32:58.289Z,25.70
2023-02-23T01:33:31.300Z,25.97
2023-02-23T01:34:04.845Z,25.30
2023-02-23T01:34:36.699Z,25.53
2023-02-23T01:35:10.755Z,25.33
2023-02-23T01:35:43.699Z,25.03
2023-02-23T01:36:15.527Z,24.90
2023-02-23T01:36:47.538Z,24.63
2023-02-23T01:37:19.313Z,25.57
2023-02-23T01:37:51.123Z,24.47
2023-02-23T01:38:22.946Z,24.23
2023-02-23T01:38:57.173Z,25.37
2023-02-23T01:39:30.014Z,25.57
2023-02-23T01:40:09.627Z,24.77
2023-02-23T01:40:43.592Z,24.93
2023-02-23T01:41:16.650Z,24.50
2023-02-23T01:41:51.751Z,24.83
2023-02-23T01:42:23.818Z,25.27
2023-02-23T01:43:11.948Z,25.53
2023-02-23T01:44:01.584Z,26.03
2023-02-23T01:44:34.901Z,24.03
2023-02-23T01:45:34.777Z,24.73
2023-02-23T01:46:06.675Z,24.50
2023-02-23T01:46:41.505Z,24.73
2023-02-23T01:47:14.609Z,24.93
2023-02-23T01:47:48.021Z,25.93
2023-02-23T01:48:23.852Z,25.90
2023-02-23T01:48:56.582Z,25.33
2023-02-23T01:49:31.057Z,26.20
2023-02-23T01:50:02.969Z,27.90
2023-02-23T01:50:44.327Z,27.60
2023-02-23T01:51:20.479Z,25.83
2023-02-23T01:51:59.565Z,26.07
2023-02-23T01:52:31.471Z,26.83
2023-02-23T01:53:03.775Z,26.47
2023-02-23T01:53:40.671Z,24.63
2023-02-23T01:54:18.837Z,26.40
2023-02-23T01:54:55.016Z,26.23
2023-02-23T01:55:29.314Z,25.63
2023-02-23T01:56:24.081Z,24.30
2023-02-23T01:56:59.050Z,24.23
2023-02-23T01:57:30.917Z,22.53
2023-02-23T01:58:11.757Z,24.00
2023-02-23T01:58:47.531Z,24.63
2023-02-23T01:59:19.467Z,23.97
2023-02-23T01:59:51.567Z,24.30
2023-02-23T02:00:26.583Z,25.43
2023-02-23T02:01:03.379Z,24.83
2023-02-23T02:01:35.202Z,25.03
2023-02-23T02:02:07.814Z,25.47
2023-02-23T02:02:40.322Z,25.40
2023-02-23T02:03:20.541Z,26.50
2023-02-23T02:03:57.809Z,25.63
2023-02-23T02:04:33.792Z,26.23
2023-02-23T02:05:13.166Z,24.57
2023-02-23T02:05:45.770Z,25.70
2023-02-23T02:06:21.623Z,25.87
2023-02-23T02:06:56.854Z,25.83
2023-02-23T02:07:30.982Z,25.33
2023-02-23T02:08:06.509Z,25.00
2023-02-23T02:08:45.167Z,24.40
2023-02-23T02:09:19.622Z,24.80
2023-02-23T02:10:21.550Z,25.43
2023-02-23T02:10:57.631Z,25.43
2023-02-23T02:11:36.341Z,25.87
2023-02-23T02:12:12.098Z,26.00
2023-02-23T02:12:54.436Z,24.97
2023-02-23T02:13:32.023Z,24.43
2023-02-23T02:14:14.577Z,25.30
2023-02-23T02:14:46.431Z,25.37
2023-02-23T02:15:19.697Z,25.97
2023-02-23T02:16:17.352Z,25.90
2023-02-23T02:17:02.506Z,25.77
2023-02-23T02:18:09.308Z,26.50
2023-02-23T02:19:00.260Z,25.33
2023-02-23T02:20:26.605Z,26.27
2023-02-23T02:21:41.452Z,25.83
2023-02-23T02:22:39.922Z,25.57
2023-02-23T02:23:53.558Z,26.00
2023-02-23T02:24:47.644Z,26.73
2023-02-23T02:25:56.792Z,25.67
2023-02-23T02:26:58.594Z,27.43
2023-02-23T02:27:43.737Z,25.70
2023-02-23T02:28:40.019Z,25.10
2023-02-23T02:29:20.507Z,25.27
2023-02-23T02:30:16.772Z,25.73
2023-02-23T02:31:31.696Z,25.40
2023-02-23T02:32:24.475Z,25.33
2023-02-23T02:33:33.284Z,25.57
2023-02-23T02:34:11.933Z,26.03
2023-02-23T02:34:58.700Z,26.13
2023-02-23T02:36:00.825Z,27.63
2023-02-23T02:37:07.220Z,27.90
2023-02-23T02:38:03.722Z,25.83
2023-02-23T02:38:53.826Z,26.83
2023-02-23T02:39:53.725Z,26.10
2023-02-23T02:40:55.981Z,25.80
2023-02-23T02:42:03.025Z,25.80
2023-02-23T02:42:49.363Z,26.10
2023-02-23T02:43:26.837Z,25.43
2023-02-23T02:44:49.581Z,25.17
2023-02-23T02:45:43.280Z,26.20
2023-02-23T02:46:19.785Z,26.57
2023-02-23T02:47:01.176Z,26.50
2023-02-23T02:48:05.271Z,25.27
2023-02-23T02:48:52.366Z,25.87
2023-02-23T02:49:36.110Z,26.07
2023-02-23T02:50:38.394Z,26.47
2023-02-23T02:51:24.892Z,26.20
2023-02-23T02:52:17.843Z,27.27
2023-02-23T02:52:57.372Z,25.90
2023-02-23T02:53:41.799Z,25.47
2023-02-23T02:54:28.885Z,27.07
2023-02-23T02:55:19.068Z,27.03
2023-02-23T02:55:56.089Z,27.43
2023-02-23T02:56:28.939Z,26.10
2023-02-23T02:57:04.454Z,28.20
2023-02-23T02:57:37.670Z,27.30
2023-02-23T02:58:12.625Z,26.27
2023-02-23T02:58:44.519Z,27.57
2023-02-23T02:59:38.857Z,27.33
2023-02-23T03:00:38.315Z,27.90
2023-02-23T03:01:32.901Z,28.07
2023-02-23T03:02:24.996Z,29.57
2023-02-23T03:03:15.119Z,28.40
2023-02-23T03:04:07.427Z,26.97
2023-02-23T03:04:58.000Z,28.87
2023-02-23T03:06:10.372Z,29.00
2023-02-23T03:07:17.807Z,28.70
2023-02-23T03:08:32.126Z,28.67
2023-02-23T03:09:38.390Z,29.50
2023-02-23T03:10:48.064Z,29.47
2023-02-23T03:11:38.547Z,31.67
2023-02-23T03:13:05.890Z,32.67
2023-02-23T03:14:11.188Z,31.37
2023-02-23T03:15:22.424Z,33.13
2023-02-23T03:16:16.027Z,30.70
2023-02-23T03:17:21.672Z,31.00
2023-02-23T03:18:50.633Z,32.20
2023-02-23T03:19:44.746Z,32.00
2023-02-23T03:20:54.993Z,31.37
2023-02-23T03:21:54.901Z,33.90
2023-02-23T03:22:56.703Z,32.97
2023-02-23T03:23:56.771Z,32.23
2023-02-23T03:25:26.116Z,32.50
2023-02-23T03:26:40.688Z,33.63
2023-02-23T03:28:09.280Z,34.13
2023-02-23T03:29:21.253Z,33.43
2023-02-23T03:30:28.525Z,35.57
2023-02-23T03:31:27.688Z,35.07
2023-02-23T03:32:29.996Z,34.43
2023-02-23T03:33:31.500Z,35.17
2023-02-23T03:34:36.536Z,35.20
2023-02-23T03:35:32.060Z,35.97
2023-02-23T03:36:29.652Z,34.60
2023-02-23T03:37:49.667Z,35.87
2023-02-23T03:38:54.866Z,36.83
2023-02-23T03:39:55.713Z,36.80
2023-02-23T03:40:51.880Z,36.77
2023-02-23T03:41:45.863Z,36.70
2023-02-23T03:42:42.173Z,36.17
2023-02-23T03:43:38.566Z,35.80
2023-02-23T03:44:36.564Z,36.83
2023-02-23T03:45:33.225Z,35.90
2023-02-23T03:46:30.454Z,34.33
2023-02-23T03:47:23.988Z,33.47
2023-02-23T03:48:18.522Z,33.53
2023-02-23T03:49:12.093Z,33.70
2023-02-23T03:50:03.600Z,33.87
2023-02-23T03:51:04.273Z,34.17
2023-02-23T03:51:58.788Z,34.13
2023-02-23T03:53:03.659Z,36.03
2023-02-23T03:54:19.958Z,34.27
2023-02-23T03:55:17.551Z,34.47
2023-02-23T03:56:14.478Z,36.20
2023-02-23T03:57:10.560Z,33.27
2023-02-23T03:58:06.919Z,34.77
2023-02-23T03:59:04.082Z,34.27
2023-02-23T04:00:02.665Z,33.93
2023-02-23T04:01:01.215Z,34.97
2023-02-23T04:01:52.341Z,35.83
2023-02-23T04:02:44.365Z,35.13
2023-02-23T04:03:37.774Z,36.20
2023-02-23T04:04:29.762Z,34.80
2023-02-23T04:05:26.468Z,33.13
2023-02-23T04:06:17.515Z,33.17
2023-02-23T04:07:08.638Z,32.97
2023-02-23T04:08:00.625Z,32.43
2023-02-23T04:08:56.691Z,33.13
2023-02-23T04:09:47.307Z,34.87
2023-02-23T04:10:37.887Z,33.97
2023-02-23T04:11:37.009Z,33.13
2023-02-23T04:12:39.640Z,34.67
2023-02-23T04:13:18.616Z,33.70
2023-02-23T04:13:58.653Z,33.07
2023-02-23T04:14:43.202Z,32.27
2023-02-23T04:15:30.116Z,32.80
2023-02-23T04:16:07.854Z,33.83
2023-02-23T04:16:40.793Z,33.67
2023-02-23T04:17:15.804Z,33.93
2023-02-23T04:17:47.692Z,34.90
2023-02-23T04:18:27.159Z,33.93
2023-02-23T04:18:59.244Z,34.33
2023-02-23T04:19:31.020Z,34.87
2023-02-23T04:20:03.870Z,34.77
2023-02-23T04:20:35.644Z,33.40
2023-02-23T04:21:07.830Z,32.77
2023-02-23T04:21:39.554Z,34.40
2023-02-23T04:22:11.257Z,33.40
2023-02-23T04:22:43.005Z,33.50
2023-02-23T04:23:14.793Z,33.73
2023-02-23T04:23:46.664Z,33.13
2023-02-23T04:24:18.785Z,34.13
2023-02-23T04:24:51.006Z,33.47
2023-02-23T04:25:26.890Z,32.60
2023-02-23T04:25:59.613Z,33.07
2023-02-23T04:26:31.547Z,33.97
2023-02-23T04:27:03.352Z,33.57
2023-02-23T04:27:37.720Z,33.40
2023-02-23T04:28:09.434Z,34.30
2023-02-23T04:28:41.124Z,34.03
2023-02-23T04:29:12.959Z,33.77
2023-02-23T04:29:45.261Z,34.13
2023-02-23T04:30:17.623Z,32.70
2023-02-23T04:30:50.026Z,32.07
2023-02-23T04:31:25.227Z,32.43
2023-02-23T04:31:57.328Z,32.27
2023-02-23T04:32:29.704Z,32.33
2023-02-23T04:33:01.510Z,33.93
2023-02-23T04:33:33.247Z,33.17
2023-02-23T04:34:05.110Z,34.00
2023-02-23T04:34:36.834Z,33.20
2023-02-23T04:35:09.999Z,33.37
2023-02-23T04:35:42.036Z,33.40
2023-02-23T04:36:13.893Z,32.77
2023-02-23T04:36:45.656Z,31.90
2023-02-23T04:37:17.464Z,32.53
2023-02-23T04:37:49.248Z,32.77
2023-02-23T04:38:21.560Z,32.80
2023-02-23T04:38:53.306Z,32.73
2023-02-23T04:39:25.476Z,33.60
2023-02-23T04:39:57.252Z,33.00
2023-02-23T04:40:30.160Z,32.93
2023-02-23T04:41:02.025Z,32.10
2023-02-23T04:41:33.811Z,31.60
2023-02-23T04:42:05.784Z,31.67
2023-02-23T04:42:39.439Z,32.87
2023-02-23T04:43:13.391Z,33.43
2023-02-23T04:43:45.150Z,33.10
2023-02-23T04:44:17.831Z,32.97
2023-02-23T04:44:49.772Z,31.83
2023-02-23T04:45:23.603Z,32.17
2023-02-23T04:45:55.467Z,31.17
2023-02-23T04:46:27.294Z,32.57
2023-02-23T04:46:59.110Z,33.83
2023-02-23T04:47:30.851Z,32.80
2023-02-23T04:48:02.606Z,33.70
2023-02-23T04:48:34.695Z,33.30
2023-02-23T04:49:06.472Z,33.23
2023-02-23T04:49:38.680Z,34.47
2023-02-23T04:50:11.400Z,32.93
2023-02-23T04:50:43.171Z,32.70
2023-02-23T04:51:14.962Z,33.90
2023-02-23T04:51:47.693Z,33.73
2023-02-23T04:52:19.436Z,33.30
2023-02-23T04:52:53.149Z,33.17
2023-02-23T04:53:25.410Z,35.17
2023-02-23T04:53:57.155Z,33.23
2023-02-23T04:54:28.952Z,33.10
2023-02-23T04:55:01.585Z,32.00
2023-02-23T04:55:33.673Z,32.23
2023-02-23T04:56:06.058Z,35.20
2023-02-23T04:56:39.515Z,33.97
2023-02-23T04:57:11.636Z,35.33
2023-02-23T04:57:43.489Z,34.77
2023-02-23T04:58:15.418Z,38.40
2023-02-23T04:58:47.229Z,38.30
2023-02-23T04:59:19.257Z,40.23
2023-02-23T04:59:50.984Z,36.87
2023-02-23T05:00:22.898Z,34.30
2023-02-23T05:00:54.800Z,34.10
2023-02-23T05:01:27.377Z,33.73
2023-02-23T05:01:59.218Z,33.37
2023-02-23T05:02:32.111Z,33.63
2023-02-23T05:03:04.029Z,33.03
2023-02-23T05:03:36.348Z,33.13
2023-02-23T05:04:08.375Z,32.00
2023-02-23T05:04:40.188Z,32.13
2023-02-23T05:05:12.514Z,31.83
2023-02-23T05:05:45.475Z,31.87
2023-02-23T05:06:17.760Z,32.63
2023-02-23T05:06:49.524Z,32.37
2023-02-23T05:07:21.292Z,32.43
2023-02-23T05:07:54.630Z,32.17
2023-02-23T05:08:26.376Z,33.83
2023-02-23T05:08:58.152Z,31.30
2023-02-23T05:09:30.719Z,31.27
2023-02-23T05:10:02.709Z,30.73
2023-02-23T05:10:34.973Z,31.63
2023-02-23T05:11:07.821Z,31.80
2023-02-23T05:11:39.647Z,30.77
2023-02-23T05:12:11.392Z,29.83
2023-02-23T05:12:43.196Z,30.93
2023-02-23T05:13:16.387Z,32.13
2023-02-23T05:13:48.184Z,31.57
2023-02-23T05:14:20.024Z,31.57
2023-02-23T05:14:51.792Z,31.73
2023-02-23T05:15:23.659Z,31.33
2023-02-23T05:15:58.285Z,31.77
2023-02-23T05:16:30.132Z,31.93
2023-02-23T05:17:01.968Z,31.37
2023-02-23T05:17:33.757Z,31.33
2023-02-23T05:18:05.854Z,32.30
2023-02-23T05:18:37.571Z,30.53
2023-02-23T05:19:09.344Z,29.60
2023-02-23T05:19:41.726Z,29.43
2023-02-23T05:20:14.922Z,29.10
2023-02-23T05:20:47.727Z,31.60
2023-02-23T05:21:19.716Z,31.90
2023-02-23T05:21:51.553Z,31.07
2023-02-23T05:22:23.644Z,31.70
2023-02-23T05:22:55.434Z,30.40
2023-02-23T05:23:27.228Z,29.73
2023-02-23T05:23:59.012Z,30.97
2023-02-23T05:24:30.779Z,31.87
2023-02-23T05:25:04.290Z,31.03
2023-02-23T05:25:38.925Z,31.03
2023-02-23T05:26:13.062Z,31.60
2023-02-23T05:26:45.511Z,30.40
2023-02-23T05:27:17.968Z,31.33
2023-02-23T05:27:50.127Z,32.13
2023-02-23T05:28:21.921Z,30.50
2023-02-23T05:28:55.006Z,29.93
2023-02-23T05:29:26.771Z,29.30
2023-02-23T05:29:58.718Z,29.33
2023-02-23T05:30:30.738Z,29.43
2023-02-23T05:31:04.598Z,29.87
2023-02-23T05:31:38.146Z,29.73
2023-02-23T05:32:10.086Z,28.63
2023-02-23T05:32:41.901Z,30.27
2023-02-23T05:33:15.844Z,31.03
2023-02-23T05:33:48.404Z,30.33
2023-02-23T05:34:20.143Z,29.43
2023-02-23T05:34:51.916Z,29.67
2023-02-23T05:35:24.117Z,30.00
2023-02-23T05:35:56.003Z,30.07
2023-02-23T05:36:28.371Z,29.13
2023-02-23T05:37:00.192Z,27.97
2023-02-23T05:37:31.979Z,28.00
2023-02-23T05:38:03.754Z,29.87
2023-02-23T05:38:35.610Z,29.43
2023-02-23T05:39:07.526Z,27.93
2023-02-23T05:39:40.192Z,29.03
2023-02-23T05:40:12.516Z,30.13
2023-02-23T05:40:44.827Z,29.17
2023-02-23T05:41:19.870Z,27.97
2023-02-23T05:41:52.611Z,29.13
2023-02-23T05:42:24.432Z,28.10
2023-02-23T05:42:59.565Z,29.27
2023-02-23T05:43:31.686Z,29.73
2023-02-23T05:44:03.583Z,31.20
2023-02-23T05:44:35.462Z,36.13
2023-02-23T05:45:07.837Z,34.13
2023-02-23T05:45:43.197Z,29.73
2023-02-23T05:46:21.523Z,29.53
2023-02-23T05:46:53.493Z,28.17
2023-02-23T05:47:25.262Z,29.20
2023-02-23T05:47:57.112Z,29.13
2023-02-23T05:48:29.635Z,28.03
2023-02-23T05:49:02.372Z,28.20
2023-02-23T05:49:34.253Z,29.87
2023-02-23T05:50:08.341Z,30.67
2023-02-23T05:50:40.210Z,30.73
2023-02-23T05:51:16.956Z,29.03
2023-02-23T05:51:48.917Z,27.67
2023-02-23T05:52:20.754Z,29.27
2023-02-23T05:52:52.721Z,28.67
2023-02-23T05:53:24.477Z,27.97
2023-02-23T05:53:56.364Z,29.27
2023-02-23T05:54:28.164Z,28.20
2023-02-23T05:55:00.118Z,28.43
2023-02-23T05:55:32.197Z,28.10
2023-02-23T05:56:05.800Z,27.57
2023-02-23T05:56:37.603Z,28.73
2023-02-23T05:57:09.371Z,29.07
2023-02-23T05:57:41.431Z,28.03
2023-02-23T05:58:13.164Z,29.30
2023-02-23T05:58:44.962Z,29.60
2023-02-23T05:59:17.531Z,28.00
2023-02-23T05:59:49.490Z,29.33
2023-02-23T06:00:22.144Z,28.70
2023-02-23T06:00:54.011Z,28.20
2023-02-23T06:01:27.042Z,29.00
2023-02-23T06:01:58.784Z,29.30
2023-02-23T06:02:30.563Z,29.50
2023-02-23T06:03:02.336Z,28.30
2023-02-23T06:03:34.573Z,28.03
2023-02-23T06:04:06.579Z,29.07
2023-02-23T06:04:38.422Z,30.30
2023-02-23T06:05:11.611Z,29.10
2023-02-23T06:05:43.410Z,29.43
2023-02-23T06:06:16.000Z,29.13
2023-02-23T06:06:47.824Z,28.13
2023-02-23T06:07:19.588Z,27.93
2023-02-23T06:07:51.677Z,27.70
2023-02-23T06:08:25.668Z,27.33
2023-02-23T06:08:57.425Z,27.03
2023-02-23T06:09:29.222Z,27.17
2023-02-23T06:10:00.982Z,28.83
2023-02-23T06:10:33.371Z,28.83
2023-02-23T06:11:05.822Z,29.03
2023-02-23T06:11:37.617Z,29.80
2023-02-23T06:12:09.467Z,30.23
2023-02-23T06:12:41.300Z,34.07
2023-02-23T06:13:13.748Z,32.47
2023-02-23T06:14:18.444Z,32.10
2023-02-23T06:14:50.994Z,33.30
2023-02-23T06:15:22.750Z,37.00
2023-02-23T06:15:54.864Z,47.63
2023-02-23T06:16:28.057Z,45.13
2023-02-23T06:17:00.438Z,38.23
2023-02-23T06:17:32.678Z,41.00
2023-02-23T06:18:05.744Z,45.17
2023-02-23T06:18:37.529Z,46.33
2023-02-23T06:19:09.406Z,51.40
2023-02-23T06:19:41.190Z,65.07
2023-02-23T06:20:14.382Z,49.53
2023-02-23T06:20:46.239Z,35.87
2023-02-23T06:21:18.381Z,33.50
2023-02-23T06:21:50.293Z,40.60
2023-02-23T06:22:22.081Z,44.70
2023-02-23T06:22:53.866Z,41.10
2023-02-23T06:23:25.580Z,32.83
2023-02-23T06:24:00.714Z,30.60
2023-02-23T06:24:32.672Z,32.77
2023-02-23T06:25:05.132Z,32.70
2023-02-23T06:25:36.900Z,31.13
2023-02-23T06:26:44.441Z,25.93
2023-02-23T06:27:16.693Z,24.57
2023-02-23T06:27:52.133Z,26.13
2023-02-23T06:28:24.440Z,26.07
2023-02-23T06:28:58.489Z,25.40
2023-02-23T06:29:31.140Z,25.70
2023-02-23T06:30:38.153Z,25.03
2023-02-23T06:31:10.135Z,23.90
2023-02-23T06:31:42.182Z,25.03
2023-02-23T06:32:14.189Z,24.87
2023-02-23T06:32:46.046Z,23.87
2023-02-23T06:33:17.883Z,24.57
2023-02-23T06:34:14.861Z,23.90
2023-02-23T06:34:46.644Z,23.90
2023-02-23T06:35:18.476Z,23.23
2023-02-23T06:35:50.508Z,23.87
2023-02-23T06:36:22.631Z,23.67
2023-02-23T06:36:54.411Z,23.63
2023-02-23T06:37:26.229Z,23.73
2023-02-23T06:37:58.766Z,21.70
2023-02-23T06:38:30.594Z,23.30
2023-02-23T06:39:02.361Z,22.37
2023-02-23T06:39:34.139Z,22.70
2023-02-23T06:40:06.994Z,22.10
2023-02-23T06:40:39.798Z,23.23
2023-02-23T06:41:12.703Z,22.77
2023-02-23T06:41:44.533Z,21.67
2023-02-23T06:42:16.771Z,23.53
2023-02-23T06:42:48.812Z,21.83
2023-02-23T06:43:22.856Z,21.60
2023-02-23T06:43:55.655Z,22.63
2023-02-23T06:44:27.502Z,22.27
2023-02-23T06:44:59.241Z,22.83
2023-02-23T06:45:32.084Z,22.27
2023-02-23T06:46:04.371Z,21.30
2023-02-23T06:46:36.442Z,22.07
2023-02-23T06:47:08.272Z,23.33
2023-02-23T06:47:41.114Z,22.93
2023-02-23T06:48:12.885Z,23.00
2023-02-23T06:48:44.668Z,22.33
2023-02-23T06:49:16.760Z,22.47
2023-02-23T06:49:48.574Z,21.47
2023-02-23T06:50:20.404Z,20.30
2023-02-23T06:50:52.572Z,20.70
2023-02-23T06:51:24.391Z,20.87
2023-02-23T06:51:56.964Z,21.07
2023-02-23T06:52:28.781Z,20.93
2023-02-23T06:53:00.508Z,21.13
2023-02-23T06:53:32.278Z,20.47
2023-02-23T06:54:04.274Z,20.17
2023-02-23T06:54:38.202Z,20.87
2023-02-23T06:55:10.300Z,21.30
2023-02-23T06:55:42.010Z,20.43
2023-02-23T06:56:14.094Z,21.47
2023-02-23T06:56:46.569Z,21.90
2023-02-23T06:57:18.691Z,21.73
2023-02-23T06:58:23.363Z,20.73
2023-02-23T06:58:58.182Z,20.40
2023-02-23T06:59:30.802Z,19.97
2023-02-23T07:00:06.885Z,19.57
2023-02-23T07:00:43.016Z,20.30
2023-02-23T07:01:15.872Z,20.20
2023-02-23T07:01:47.678Z,19.37
2023-02-23T07:02:19.992Z,19.30
2023-02-23T07:02:51.765Z,20.33
2023-02-23T07:03:24.355Z,20.53
2023-02-23T07:03:56.110Z,20.23
2023-02-23T07:04:27.895Z,20.50
2023-02-23T07:04:59.630Z,19.73
2023-02-23T07:05:31.480Z,19.90
2023-02-23T07:06:04.857Z,20.33
2023-02-23T07:06:37.256Z,20.77
2023-02-23T07:07:09.505Z,20.47
2023-02-23T07:07:41.431Z,19.50
2023-02-23T07:08:13.229Z,20.93
2023-02-23T07:08:45.214Z,20.03
2023-02-23T07:09:16.940Z,20.27
2023-02-23T07:09:48.695Z,20.60
2023-02-23T07:10:20.611Z,21.40
2023-02-23T07:10:52.545Z,20.17
2023-02-23T07:11:24.331Z,18.93
2023-02-23T07:11:56.132Z,19.27
2023-02-23T07:12:27.968Z,19.30
2023-02-23T07:12:59.740Z,18.70
2023-02-23T07:13:31.504Z,19.57
2023-02-23T07:14:03.433Z,20.07
2023-02-23T07:14:35.842Z,19.87
2023-02-23T07:15:08.239Z,19.43
2023-02-23T07:15:41.591Z,19.17
2023-02-23T07:16:14.957Z,19.03
2023-02-23T07:16:46.813Z,18.00
2023-02-23T07:17:18.887Z,18.77
2023-02-23T07:17:52.773Z,20.20
2023-02-23T07:18:24.516Z,19.67
2023-02-23T07:18:56.793Z,18.77
2023-02-23T07:19:28.932Z,18.37
2023-02-23T07:20:00.704Z,18.43
2023-02-23T07:20:33.283Z,17.67
2023-02-23T07:21:05.233Z,18.27
2023-02-23T07:21:37.463Z,19.33
2023-02-23T07:22:09.208Z,18.83
2023-02-23T07:22:40.953Z,18.03
2023-02-23T07:23:12.820Z,18.40
2023-02-23T07:23:44.616Z,19.30
2023-02-23T07:24:16.451Z,17.90
2023-02-23T07:24:48.309Z,18.13
2023-02-23T07:25:20.287Z,18.90
2023-02-23T07:25:56.630Z,19.63
2023-02-23T07:26:28.441Z,18.37
2023-02-23T07:27:00.320Z,18.30
2023-02-23T07:27:32.079Z,18.00
2023-02-23T07:28:04.527Z,17.83
2023-02-23T07:28:37.143Z,17.63
2023-02-23T07:29:12.520Z,17.53
2023-02-23T07:29:44.273Z,18.40
2023-02-23T07:30:18.274Z,18.73
2023-02-23T07:30:50.255Z,18.50
2023-02-23T07:31:22.396Z,18.40
2023-02-23T07:31:55.196Z,18.00
2023-02-23T07:32:27.121Z,19.17
2023-02-23T07:32:58.963Z,18.13
2023-02-23T07:33:32.692Z,18.43
2023-02-23T07:34:04.557Z,18.73
2023-02-23T07:34:37.273Z,18.37
2023-02-23T07:35:09.774Z,18.03
2023-02-23T07:35:42.442Z,18.87
2023-02-23T07:36:14.243Z,18.47
2023-02-23T07:36:46.033Z,17.87
2023-02-23T07:37:17.829Z,18.10
2023-02-23T07:37:49.555Z,18.23
2023-02-23T07:38:21.344Z,17.17
2023-02-23T07:38:54.272Z,17.30
2023-02-23T07:39:26.198Z,17.77
2023-02-23T07:39:59.524Z,16.97
2023-02-23T07:40:32.747Z,18.17
2023-02-23T07:41:04.776Z,17.50
2023-02-23T07:41:36.575Z,16.73
2023-02-23T07:42:08.369Z,18.13
2023-02-23T07:42:40.168Z,18.27
2023-02-23T07:43:11.930Z,18.00
2023-02-23T07:43:43.762Z,17.40
2023-02-23T07:44:15.930Z,19.30
2023-02-23T07:44:48.199Z,18.73
2023-02-23T07:45:19.968Z,18.70
2023-02-23T07:45:51.882Z,19.17
2023-02-23T07:46:23.684Z,22.03
2023-02-23T07:46:55.502Z,23.40
2023-02-23T07:47:31.261Z,20.77
2023-02-23T07:48:03.770Z,19.33
2023-02-23T07:48:35.620Z,17.93
2023-02-23T07:49:07.447Z,18.57
2023-02-23T07:49:39.226Z,19.37
2023-02-23T07:50:12.775Z,18.60
2023-02-23T07:50:45.084Z,17.60
2023-02-23T07:51:17.754Z,18.50
2023-02-23T07:51:49.728Z,17.57
2023-02-23T07:52:22.080Z,16.67
2023-02-23T07:52:53.885Z,17.63
2023-02-23T07:53:27.937Z,17.13
2023-02-23T07:54:04.802Z,17.20
2023-02-23T07:54:36.588Z,18.20
2023-02-23T07:55:09.436Z,17.47
2023-02-23T07:55:41.318Z,16.93
2023-02-23T07:56:13.731Z,17.63
2023-02-23T07:56:45.488Z,16.37
2023-02-23T07:57:17.249Z,17.00
2023-02-23T07:57:49.018Z,16.67
2023-02-23T07:58:20.796Z,16.83
2023-02-23T07:58:52.564Z,16.23
2023-02-23T07:59:24.384Z,16.77
2023-02-23T07:59:56.189Z,16.37